Latest Weather Observations for Birdsville

IDQ60801

Issued at 1:02 pm EST Wednesday 1 April 2015 (issued every 30 minutes, with the page automatically refreshed every 10 minutes)

About weather observations | Map of weather stations | Latest weather observations for QLD | Other Formats
Station Details ID: 038026 Name: BIRDSVILLE AIRPORT Lat: -25.90 Lon: 139.35 Height: 46.6 m
Data from the previous 72 hours. | See also: Recent months at Birdsville
Date/Time
EST
Temp
°C
App
Temp
°C
Dew
Point
Rel
Hum
%
Delta-T
°C
Wind Press
QNH
hPa
Press
MSL
hPa
Rain
since 9 am
mm
Dir
 
Spd
km/h
Gust
km/h
Spd
kts
Gust
kts
01/01:00pm 34.2 31.6 10.7 24 13.7 ENE 15 22 8 12 1014.2 - 0.0
01/12:30pm 33.7 32.3 12.1 27 12.8 NNE 11 24 6 13 1014.7 - 0.0
01/12:00pm 33.1 31.6 13.2 30 12.0 NE 13 20 7 11 1015.4 1015.4 0.0
01/11:30am 32.2 30.8 13.4 32 11.3 NE 13 20 7 11 1015.9 - 0.0
01/11:00am 32.0 29.9 13.7 33 11.1 NE 17 24 9 13 1016.2 - 0.0
01/10:30am 30.6 28.1 13.4 35 10.3 NNE 19 26 10 14 1016.5 - 0.0
01/10:00am 29.6 27.3 14.6 40 9.1 NE 20 26 11 14 1016.8 - 0.0
01/09:30am 28.1 26.2 15.1 45 7.9 NE 19 24 10 13 1017.0 - 0.0
01/09:00am 27.6 26.1 16.2 49 7.0 NE 19 24 10 13 1016.7 1016.5 0.0
01/08:30am 26.2 24.8 15.6 52 6.5 NE 17 20 9 11 1016.4 - 0.0
01/08:00am 25.0 24.2 15.0 53 6.0 NE 13 15 7 8 1016.1 - 0.0
01/07:30am 23.4 23.5 14.4 57 5.3 ENE 7 9 4 5 1015.8 - 0.0
01/07:00am 22.8 23.1 14.9 61 4.7 ENE 7 7 4 4 1015.5 - 0.0
01/06:30am 23.2 23.0 14.7 58 5.0 ENE 9 11 5 6 1015.2 - 0.0
01/06:00am 23.5 22.4 14.2 56 5.5 NE 13 13 7 7 1015.0 1014.8 0.0
01/05:30am 23.9 22.7 14.0 54 5.8 NE 13 15 7 8 1014.6 - 0.0
01/05:00am 24.4 23.3 14.2 53 6.0 ENE 13 17 7 9 1014.2 - 0.0
01/04:30am 24.2 22.7 13.1 50 6.4 NE 13 15 7 8 1014.0 - 0.0
01/04:00am 24.7 23.2 13.0 48 6.8 ENE 13 17 7 9 1013.9 - 0.0
01/03:30am 24.7 22.7 10.2 40 8.0 ENE 11 13 6 7 1014.0 - 0.0
01/03:00am 25.1 22.5 7.7 33 9.2 E 11 13 6 7 1014.2 1014.0 0.0
01/02:30am 25.5 22.7 7.1 31 9.7 E 11 13 6 7 1014.4 - 0.0
01/02:00am 25.8 22.8 5.9 28 10.3 E 11 15 6 8 1014.7 - 0.0
01/01:30am 25.1 22.1 4.3 26 10.4 E 9 15 5 8 1015.1 - 0.0
01/01:00am 25.4 22.0 4.0 25 10.6 SE 11 17 6 9 1015.2 - 0.0
01/12:30am 26.1 22.3 4.0 24 11.0 SSE 13 17 7 9 1015.3 - 0.0
01/12:00am 26.4 22.7 4.2 24 11.1 SSE 13 15 7 8 1015.5 1015.3 0.0
 
Date/Time
EST
Temp
°C
App
Temp
°C
Dew
Point
Rel
Hum
%
Delta-T
°C
Wind Press
QNH
hPa
Press
MSL
hPa
Rain
since 9 am
mm
Dir
 
Spd
km/h
Gust
km/h
Spd
kts
Gust
kts
31/11:30pm 26.9 22.7 4.0 23 11.5 SSE 15 17 8 9 1015.5 - 0.0
31/11:00pm 27.3 23.6 4.4 23 11.6 SSE 13 15 7 8 1015.6 - 0.0
31/10:30pm 28.2 24.5 4.5 22 12.1 SSE 13 17 7 9 1015.7 - 0.0
31/10:00pm 28.2 24.5 4.5 22 12.1 S 13 15 7 8 1015.8 - 0.0
31/09:30pm 28.6 25.3 4.8 22 12.3 S 11 11 6 6 1015.7 - 0.0
31/09:00pm 29.6 26.8 5.0 21 12.8 SSE 9 11 5 6 1015.6 1015.3 0.0
31/08:30pm 30.0 27.4 6.0 22 12.7 S 9 11 5 6 1015.2 - 0.0
31/08:00pm 30.9 28.1 5.3 20 13.5 SSE 9 11 5 6 1014.8 - 0.0
31/07:30pm 32.1 29.4 5.6 19 14.1 SSE 9 13 5 7 1014.3 - 0.0
31/07:00pm 33.0 29.9 5.5 18 14.7 SSE 11 15 6 8 1013.9 - 0.0
31/06:30pm 33.9 29.6 5.4 17 15.3 SE 17 24 9 13 1013.7 - 0.0
31/06:00pm 34.4 31.2 5.0 16 15.7 ESE 11 26 6 14 1013.5 1013.2 0.0
31/05:30pm 34.7 31.4 4.3 15 16.1 SE 11 17 6 9 1013.3 - 0.0
31/05:00pm 35.1 31.4 4.6 15 16.3 S 13 20 7 11 1013.1 - 0.0
31/04:30pm 35.6 32.0 5.0 15 16.5 SE 13 24 7 13 1013.0 - 0.0
31/04:00pm 35.0 30.7 5.4 16 16.0 ESE 17 24 9 13 1013.3 - 0.0
31/03:30pm 35.6 30.9 5.0 15 16.5 SE 19 26 10 14 1013.5 - 0.0
31/03:00pm 35.2 31.9 6.5 17 15.8 SE 13 19 7 10 1014.0 1013.7 0.0
31/02:30pm 35.2 31.4 5.6 16 16.0 ENE 15 30 8 16 1014.3 - 0.0
31/02:00pm 34.5 30.9 9.7 22 14.3 SE 19 26 10 14 1015.1 - 0.0
31/01:30pm 33.4 30.1 9.4 23 13.7 SE 17 26 9 14 1015.6 - 0.0
31/01:00pm 33.1 29.5 9.8 24 13.3 ESE 19 28 10 15 1016.0 - 0.0
31/12:30pm 32.6 28.9 9.4 24 13.2 SE 19 26 10 14 1016.7 - 0.0
31/12:00pm 32.8 29.0 8.9 23 13.5 SE 19 32 10 17 1017.4 1017.1 0.0
31/11:30am 31.7 27.5 7.4 22 13.3 SE 19 26 10 14 1017.9 - 0.0
31/11:00am 30.6 25.7 5.1 20 13.4 SE 20 30 11 16 1018.5 - 0.0
31/10:30am 30.0 24.5 3.9 19 13.3 SE 22 28 12 15 1018.8 - 0.0
31/10:00am 27.9 22.3 3.6 21 12.2 SE 22 28 12 15 1019.0 - 0.0
31/09:30am 26.3 20.0 3.5 23 11.3 SE 26 32 14 17 1019.4 - 0.0
31/09:00am 24.3 18.4 4.1 27 10.0 SSE 24 32 13 17 1019.5 1019.1 0.0
31/08:30am 23.0 18.6 4.5 30 9.1 SSE 17 26 9 14 1019.3 - 0.0
31/08:00am 21.0 16.6 4.6 34 8.0 S 17 20 9 11 1018.9 - 0.0
31/07:30am 19.9 15.9 4.8 37 7.3 S 15 19 8 10 1018.7 - 0.0
31/07:00am 20.0 16.0 4.9 37 7.4 S 15 19 8 10 1018.5 - 0.0
31/06:30am 20.4 15.7 5.2 37 7.5 S 19 22 10 12 1018.3 - 0.0
31/06:00am 20.6 16.5 4.6 35 7.8 S 15 20 8 11 1018.1 1017.7 0.0
31/05:30am 20.7 16.7 4.7 35 7.8 S 15 19 8 10 1017.8 - 0.0
31/05:00am 21.4 16.6 4.9 34 8.1 S 19 24 10 13 1017.7 - 0.0
31/04:30am 21.8 16.8 4.8 33 8.4 S 20 24 11 13 1017.7 - 0.0
31/04:00am 22.4 17.1 4.9 32 8.7 S 22 30 12 16 1017.8 - 0.0
31/03:30am 22.8 17.6 5.3 32 8.8 S 22 28 12 15 1018.0 - 0.0
31/03:00am 22.9 18.0 4.9 31 8.9 S 20 26 11 14 1018.0 1017.7 0.0
31/02:30am 23.3 18.3 4.8 30 9.2 SSE 20 26 11 14 1018.3 - 0.0
31/02:00am 23.5 18.2 4.9 30 9.3 S 22 30 12 16 1018.7 - 0.0
31/01:30am 23.9 18.6 4.8 29 9.5 S 22 30 12 16 1018.9 - 0.0
31/01:00am 24.5 19.2 4.8 28 9.9 S 22 30 12 16 1019.1 - 0.0
31/12:30am 25.2 19.5 4.9 27 10.3 S 24 32 13 17 1019.3 - 0.0
31/12:00am 26.3 20.2 4.7 25 10.9 S 26 35 14 19 1019.4 1019.0 0.0
 
Date/Time
EST
Temp
°C
App
Temp
°C
Dew
Point
Rel
Hum
%
Delta-T
°C
Wind Press
QNH
hPa
Press
MSL
hPa
Rain
since 9 am
mm
Dir
 
Spd
km/h
Gust
km/h
Spd
kts
Gust
kts
30/11:30pm 26.6 20.8 4.4 24 11.2 S 24 30 13 16 1019.4 - 0.0
30/11:00pm 27.1 21.8 4.8 24 11.4 S 22 30 12 16 1019.5 - 0.0
30/10:30pm 27.1 21.6 4.2 23 11.6 S 22 32 12 17 1019.5 - 0.0
30/10:00pm 27.3 22.3 4.4 23 11.6 S 20 24 11 13 1019.5 - 0.0
30/09:30pm 27.9 22.4 4.2 22 12.0 S 22 26 12 14 1019.3 - 0.0
30/09:00pm 28.6 23.4 3.5 20 12.6 S 20 26 11 14 1019.0 1018.7 0.0
30/08:30pm 28.8 23.5 2.9 19 12.9 S 20 24 11 13 1018.9 - 0.0
30/08:00pm 29.3 24.0 1.7 17 13.5 S 19 22 10 12 1018.6 - 0.0
30/07:30pm 30.0 24.9 0.6 15 14.2 S 17 22 9 12 1018.1 - 0.0
30/07:00pm 30.9 25.4 0.3 14 14.8 S 19 24 10 13 1017.8 - 0.0
30/06:30pm 32.0 26.2 0.2 13 15.5 S 20 28 11 15 1017.6 - 0.0
30/06:00pm 33.0 26.8 -0.2 12 16.1 S 22 30 12 16 1017.3 1016.9 0.0
30/05:30pm 33.6 27.5 0.3 12 16.4 S 22 32 12 17 1017.0 - 0.0
30/05:00pm 33.9 27.4 0.5 12 16.5 S 24 30 13 16 1016.8 - 0.0
30/04:30pm 33.9 28.4 0.5 12 16.5 S 19 28 10 15 1016.8 - 0.0
30/04:00pm 34.5 28.1 1.0 12 16.8 S 24 35 13 19 1016.7 - 0.0
30/03:30pm 34.1 28.4 0.7 12 16.6 S 20 28 11 15 1016.8 - 0.0
30/03:00pm 34.8 29.0 0.0 11 17.2 S 20 33 11 18 1017.2 1016.9 0.0
30/02:30pm 33.8 27.9 -0.7 11 16.7 SSE 20 28 11 15 1017.4 - 0.0
30/02:00pm 33.6 27.7 -0.9 11 16.7 SSE 20 30 11 16 1017.8 - 0.0
30/01:30pm 33.6 27.7 -0.9 11 16.7 SSE 20 32 11 17 1018.2 - 0.0
30/01:00pm 32.4 26.4 -1.8 11 16.1 SSE 20 33 11 18 1018.7 - 0.0
30/12:30pm 32.2 25.5 -0.8 12 15.8 SE 24 32 13 17 1019.2 - 0.0
30/12:00pm 31.8 25.9 -1.1 12 15.6 SSE 20 35 11 19 1019.9 1019.6 0.0
30/11:30am 30.9 24.6 -0.7 13 15.0 SE 22 30 12 16 1020.3 - 0.0
30/11:00am 29.7 22.7 -0.6 14 14.3 SE 26 33 14 18 1020.8 - 0.0
30/10:30am 28.9 21.9 -0.3 15 13.8 SE 26 33 14 18 1021.0 - 0.0
30/10:00am 28.2 21.4 0.9 17 13.1 SE 26 33 14 18 1021.1 - 0.0
30/09:30am 25.5 19.1 0.9 20 11.6 SE 24 32 13 17 1021.3 - 0.0
30/09:00am 24.1 17.8 1.7 23 10.5 SSE 24 30 13 16 1021.2 1020.8 0.0
30/08:30am 23.6 18.2 2.4 25 10.1 SSE 20 32 11 17 1020.8 - 0.0
30/08:00am 22.0 16.8 2.7 28 9.2 SSE 19 24 10 13 1020.6 - 0.0
30/07:30am 21.0 16.5 2.3 29 8.7 S 15 20 8 11 1020.3 - 0.0
30/07:00am 20.9 16.0 2.2 29 8.7 S 17 20 9 11 1019.9 - 0.0
30/06:30am 21.2 16.8 2.5 29 8.8 S 15 22 8 12 1019.6 - 0.0
30/06:00am 21.8 17.0 2.5 28 9.1 SSE 17 22 9 12 1019.4 1019.1 0.0
30/05:30am 22.2 17.1 2.8 28 9.2 SSE 19 24 10 13 1019.2 - 0.0
30/05:00am 22.4 17.3 3.0 28 9.3 SSE 19 24 10 13 1018.6 - 0.0
30/04:30am 22.4 17.1 3.0 28 9.3 S 20 26 11 14 1018.5 - 0.0
30/04:00am 22.6 17.3 3.2 28 9.3 S 20 26 11 14 1018.5 - 0.0
30/03:30am 23.1 17.1 3.1 27 9.6 S 24 32 13 17 1018.5 - 0.0
30/03:00am 23.5 17.3 2.4 25 10.0 S 24 30 13 16 1018.5 1018.2 0.0
30/02:30am 24.0 17.4 2.2 24 10.4 SSE 26 35 14 19 1018.7 - 0.0
30/02:00am 24.4 17.3 1.3 22 10.9 S 28 35 15 19 1018.6 - 0.0
30/01:30am 24.5 17.4 1.4 22 10.9 S 28 35 15 19 1019.5 - 0.0
30/01:00am 24.9 18.1 1.1 21 11.2 S 26 37 14 20 1019.3 - 0.0
30/12:30am 25.2 18.9 1.3 21 11.3 S 24 30 13 16 1019.5 - 0.0
30/12:00am 25.6 20.0 1.0 20 11.6 S 20 28 11 15 1019.9 1019.6 0.0
 
Date/Time
EST
Temp
°C
App
Temp
°C
Dew
Point
Rel
Hum
%
Delta-T
°C
Wind Press
QNH
hPa
Press
MSL
hPa
Rain
since 9 am
mm
Dir
 
Spd
km/h
Gust
km/h
Spd
kts
Gust
kts
29/11:30pm 26.0 19.2 0.6 19 11.9 S 26 35 14 19 1019.9 - 0.0
29/11:00pm 26.6 20.7 -2.1 15 12.9 S 19 24 10 13 1020.2 - 0.0
29/10:30pm 27.1 21.0 -2.7 14 13.3 S 20 26 11 14 1020.0 - 0.0
29/10:00pm 27.6 21.0 -3.3 13 13.7 S 22 30 12 16 1019.9 - 0.0
29/09:30pm 27.8 22.2 -3.1 13 13.8 S 17 22 9 12 1020.1 - 0.0
29/09:00pm 28.2 22.1 -3.9 12 14.1 SSE 19 24 10 13 1019.2 1018.9 0.0
29/08:30pm 28.6 22.3 -3.6 12 14.3 SSE 20 28 11 15 1019.0 - 0.0
29/08:00pm 28.7 22.1 -3.5 12 14.3 S 22 30 12 16 1018.7 - 0.0
29/07:30pm 29.3 22.4 -3.0 12 14.6 S 24 32 13 17 1018.3 - 0.0
29/07:00pm 29.8 22.4 -3.8 11 15.0 S 26 32 14 17 1018.2 - 0.0
29/06:30pm 31.1 23.9 -5.5 9 16.1 S 24 30 13 16 1017.4 - 0.0
29/06:00pm 31.8 24.3 -4.9 9 16.3 S 26 35 14 19 1017.1 1016.7 0.0
29/05:30pm 32.4 24.5 -4.5 9 16.6 S 28 35 15 19 1016.8 - 0.0
29/05:00pm 32.9 25.7 -5.7 8 17.1 SSE 24 32 13 17 1016.5 - 0.0
29/04:30pm 33.3 26.5 -5.4 8 17.3 SSE 22 32 12 17 1016.6 - 0.0
29/04:00pm 34.2 26.5 -6.5 7 18.0 SSE 26 35 14 19 1016.8 - 0.0
29/03:30pm 34.7 27.0 -6.1 7 18.2 S 26 33 14 18 1017.1 - 0.0
29/03:00pm 34.1 25.4 -4.8 8 17.6 S 32 35 17 19 1017.4 1017.1 0.0
29/02:30pm 33.9 26.0 -4.9 8 17.6 S 28 35 15 19 1017.8 - 0.0
29/02:00pm 33.3 25.7 -5.4 8 17.3 S 26 39 14 21 1018.1 - 0.0
29/01:30pm 33.2 25.4 -3.9 9 17.0 S 28 39 15 21 1018.4 - 0.0

Other Formats:

Comma delimited format used in spreadsheet applications
http://www.bom.gov.au/fwo/IDQ60801/IDQ60801.95482.axf

JavaScript Object Notation format (JSON) in row-major order
http://www.bom.gov.au/fwo/IDQ60801/IDQ60801.95482.json